createdAt,value
2022-09-01T00:00:55.389Z,3.97
2022-09-01T00:01:57.946Z,3.80
2022-09-01T00:03:00.323Z,3.92
2022-09-01T00:04:04.293Z,3.90
2022-09-01T00:05:07.718Z,3.65
2022-09-01T00:06:11.595Z,3.83
2022-09-01T00:07:14.720Z,4.03
2022-09-01T00:08:18.475Z,3.97
2022-09-01T00:09:23.190Z,3.83
2022-09-01T00:10:25.462Z,4.20
2022-09-01T00:11:29.039Z,3.80
2022-09-01T00:12:31.962Z,4.22
2022-09-01T00:13:34.324Z,3.90
2022-09-01T00:14:41.531Z,3.97
2022-09-01T00:15:44.184Z,3.97
2022-09-01T00:16:46.561Z,4.15
2022-09-01T00:17:53.941Z,4.25
2022-09-01T00:18:57.900Z,4.70
2022-09-01T00:20:00.223Z,4.28
2022-09-01T00:21:02.460Z,3.75
2022-09-01T00:22:04.968Z,4.13
2022-09-01T00:23:07.217Z,4.40
2022-09-01T00:24:11.154Z,4.28
2022-09-01T00:25:13.448Z,3.85
2022-09-01T00:26:15.693Z,4.00
2022-09-01T00:27:17.961Z,4.25
2022-09-01T00:28:21.476Z,4.22
2022-09-01T00:29:31.444Z,4.30
2022-09-01T00:30:33.709Z,4.40
2022-09-01T00:31:36.496Z,3.90
2022-09-01T00:32:38.861Z,4.30
2022-09-01T00:33:41.587Z,5.00
2022-09-01T00:34:43.767Z,4.40
2022-09-01T00:35:46.034Z,4.10
2022-09-01T00:36:48.770Z,4.45
2022-09-01T00:37:51.168Z,4.50
2022-09-01T00:38:54.042Z,4.43
2022-09-01T00:39:56.418Z,4.38
2022-09-01T00:41:00.666Z,4.53
2022-09-01T00:42:03.596Z,4.63
2022-09-01T00:43:20.592Z,4.25
2022-09-01T00:44:28.845Z,4.10
2022-09-01T00:45:33.523Z,4.72
2022-09-01T00:46:51.013Z,4.65
2022-09-01T00:47:57.397Z,4.45
2022-09-01T00:49:04.758Z,4.75
2022-09-01T00:50:09.573Z,5.28
2022-09-01T00:51:13.071Z,4.40
2022-09-01T00:52:39.189Z,4.72
2022-09-01T00:53:43.953Z,4.50
2022-09-01T00:54:50.473Z,4.68
2022-09-01T00:55:52.906Z,4.68
2022-09-01T00:56:57.679Z,5.05
2022-09-01T00:58:03.329Z,4.93
2022-09-01T00:59:07.550Z,5.00
2022-09-01T01:00:15.658Z,4.90
2022-09-01T01:01:18.268Z,4.78
2022-09-01T01:02:20.659Z,5.32
2022-09-01T01:03:24.031Z,5.15
2022-09-01T01:04:26.320Z,4.80
2022-09-01T01:05:36.469Z,5.20
2022-09-01T01:06:39.292Z,5.40
2022-09-01T01:07:46.027Z,5.35
2022-09-01T01:08:58.097Z,4.88
2022-09-01T01:10:00.382Z,5.20
2022-09-01T01:11:09.380Z,5.20
2022-09-01T01:12:13.709Z,5.38
2022-09-01T01:13:17.072Z,5.57
2022-09-01T01:14:20.157Z,4.75
2022-09-01T01:15:22.412Z,5.57
2022-09-01T01:16:27.608Z,4.90
2022-09-01T01:17:29.863Z,5.25
2022-09-01T01:18:32.100Z,5.88
2022-09-01T01:20:05.381Z,5.10
2022-09-01T01:21:36.240Z,5.63
2022-09-01T01:23:03.675Z,6.30
2022-09-01T01:24:27.442Z,5.63
2022-09-01T01:25:34.361Z,5.30
2022-09-01T01:26:37.228Z,5.85
2022-09-01T01:27:43.102Z,6.10
2022-09-01T01:28:45.618Z,5.68
2022-09-01T01:29:50.126Z,5.65
2022-09-01T01:30:59.306Z,6.22
2022-09-01T01:32:02.109Z,5.97
2022-09-01T01:33:05.882Z,5.88
2022-09-01T01:34:08.794Z,6.03
2022-09-01T01:35:14.761Z,6.25
2022-09-01T01:36:36.218Z,6.35
2022-09-01T01:37:39.575Z,6.28
2022-09-01T01:38:44.423Z,6.47
2022-09-01T01:39:49.114Z,5.82
2022-09-01T01:40:53.687Z,6.07
2022-09-01T01:41:59.085Z,6.00
2022-09-01T01:43:01.950Z,6.25
2022-09-01T01:44:05.243Z,6.28
2022-09-01T01:45:12.573Z,6.55
2022-09-01T01:46:18.981Z,5.95
2022-09-01T01:47:21.887Z,5.80
2022-09-01T01:48:24.712Z,6.78
2022-09-01T01:49:31.047Z,6.07
2022-09-01T01:50:35.719Z,6.50
2022-09-01T01:51:39.547Z,6.47
2022-09-01T01:52:45.489Z,6.32
2022-09-01T01:53:52.532Z,6.07
2022-09-01T01:54:55.392Z,6.30
2022-09-01T01:56:00.853Z,6.03
2022-09-01T01:57:08.043Z,6.95
2022-09-01T01:58:15.289Z,6.68
2022-09-01T01:59:19.585Z,6.70
2022-09-01T02:00:27.068Z,6.80
2022-09-01T02:01:33.390Z,7.10
2022-09-01T02:02:38.013Z,6.85
2022-09-01T02:03:40.813Z,6.82
2022-09-01T02:04:43.451Z,6.90
2022-09-01T02:05:49.192Z,7.32
2022-09-01T02:06:52.258Z,6.90
2022-09-01T02:07:56.693Z,6.70
2022-09-01T02:09:03.469Z,7.03
2022-09-01T02:10:06.742Z,7.00
2022-09-01T02:11:09.189Z,6.80
2022-09-01T02:12:11.971Z,7.20
2022-09-01T02:13:25.095Z,6.90
2022-09-01T02:14:29.093Z,6.68
2022-09-01T02:15:35.042Z,7.40
2022-09-01T02:16:37.405Z,7.47
2022-09-01T02:17:43.122Z,7.05
2022-09-01T02:18:49.869Z,7.38
2022-09-01T02:19:57.467Z,7.38
2022-09-01T02:21:00.874Z,6.82
2022-09-01T02:22:03.174Z,7.25
2022-09-01T02:23:10.579Z,7.03
2022-09-01T02:24:13.685Z,7.75
2022-09-01T02:25:16.580Z,7.72
2022-09-01T02:26:19.014Z,7.70
2022-09-01T02:27:25.769Z,7.72
2022-09-01T02:28:32.043Z,7.35
2022-09-01T02:29:37.069Z,7.53
2022-09-01T02:30:49.208Z,7.43
2022-09-01T02:31:54.120Z,7.63
2022-09-01T02:32:58.395Z,7.45
2022-09-01T02:34:03.714Z,7.18
2022-09-01T02:35:09.919Z,7.55
2022-09-01T02:36:16.248Z,7.25
2022-09-01T02:37:18.458Z,7.43
2022-09-01T02:38:26.200Z,7.90
2022-09-01T02:39:33.456Z,7.63
2022-09-01T02:40:39.118Z,7.75
2022-09-01T02:41:42.139Z,7.70
2022-09-01T02:42:47.320Z,7.95
2022-09-01T02:43:50.078Z,7.63
2022-09-01T02:44:56.165Z,8.15
2022-09-01T02:46:01.251Z,8.32
2022-09-01T02:47:05.467Z,7.20
2022-09-01T02:48:10.379Z,7.43
2022-09-01T02:49:17.461Z,8.02
2022-09-01T02:50:20.171Z,7.65
2022-09-01T02:51:25.459Z,7.78
2022-09-01T02:52:29.699Z,8.18
2022-09-01T02:53:36.038Z,8.15
2022-09-01T02:54:39.017Z,8.20
2022-09-01T02:55:43.046Z,7.40
2022-09-01T02:56:49.847Z,7.82
2022-09-01T02:57:55.575Z,8.23
2022-09-01T02:58:57.929Z,7.22
2022-09-01T03:00:02.015Z,7.50
2022-09-01T03:01:13.710Z,7.80
2022-09-01T03:02:16.140Z,7.82
2022-09-01T03:03:19.993Z,7.15
2022-09-01T03:04:24.320Z,7.65
2022-09-01T03:05:30.049Z,7.80
2022-09-01T03:06:34.265Z,7.57
2022-09-01T03:07:37.910Z,6.85
2022-09-01T03:08:40.178Z,7.55
2022-09-01T03:09:43.686Z,7.97
2022-09-01T03:10:47.280Z,7.88
2022-09-01T03:11:52.458Z,7.25
2022-09-01T03:12:54.935Z,8.75
2022-09-01T03:13:57.665Z,7.72
2022-09-01T03:14:59.957Z,8.27
2022-09-01T03:16:02.561Z,8.02
2022-09-01T03:17:04.833Z,8.48
2022-09-01T03:18:08.996Z,8.77
2022-09-01T03:19:15.003Z,8.57
2022-09-01T03:20:19.485Z,8.27
2022-09-01T03:21:23.275Z,8.00
2022-09-01T03:22:26.983Z,7.85
2022-09-01T03:23:31.317Z,8.23
2022-09-01T03:24:33.604Z,8.75
2022-09-01T03:25:36.788Z,8.82
2022-09-01T03:26:40.420Z,8.80
2022-09-01T03:27:42.954Z,8.85
2022-09-01T03:28:46.944Z,9.05
2022-09-01T03:29:49.275Z,8.93
2022-09-01T03:30:54.054Z,8.73
2022-09-01T03:31:57.042Z,8.90
2022-09-01T03:33:01.477Z,8.82
2022-09-01T03:34:05.989Z,9.05
2022-09-01T03:35:12.880Z,8.23
2022-09-01T03:36:19.214Z,9.15
2022-09-01T03:37:23.216Z,8.75
2022-09-01T03:38:29.492Z,8.57
2022-09-01T03:39:32.089Z,9.10
2022-09-01T03:40:36.714Z,9.15
2022-09-01T03:41:39.014Z,8.77
2022-09-01T03:42:43.679Z,9.60
2022-09-01T03:43:48.562Z,9.25
2022-09-01T03:44:51.890Z,8.90
2022-09-01T03:45:56.503Z,9.75
2022-09-01T03:47:01.333Z,9.65
2022-09-01T03:48:09.000Z,9.93
2022-09-01T03:49:15.602Z,9.50
2022-09-01T03:50:21.899Z,9.93
2022-09-01T03:51:28.249Z,9.82
2022-09-01T03:52:30.563Z,10.07
2022-09-01T03:53:37.559Z,9.85
2022-09-01T03:54:40.774Z,10.10
2022-09-01T03:55:45.766Z,10.10
2022-09-01T03:56:49.114Z,10.23
2022-09-01T03:57:55.865Z,9.95
2022-09-01T03:58:59.725Z,10.10
2022-09-01T04:00:02.353Z,9.50
2022-09-01T04:01:05.875Z,9.85
2022-09-01T04:02:15.075Z,9.68
2022-09-01T04:03:28.372Z,9.57
2022-09-01T04:04:32.988Z,9.80
2022-09-01T04:05:37.557Z,10.45
2022-09-01T04:06:41.157Z,9.05
2022-09-01T04:07:45.739Z,9.82
2022-09-01T04:08:48.225Z,9.70
2022-09-01T04:09:52.620Z,9.85
2022-09-01T04:10:55.431Z,9.68
2022-09-01T04:11:57.822Z,10.10
2022-09-01T04:13:00.453Z,10.57
2022-09-01T04:14:02.766Z,10.57
2022-09-01T04:15:09.195Z,10.57
2022-09-01T04:16:47.655Z,11.02
2022-09-01T04:18:08.918Z,10.90
2022-09-01T04:19:20.403Z,10.32
2022-09-01T04:20:23.492Z,9.82
2022-09-01T04:21:26.379Z,10.05
2022-09-01T04:22:31.904Z,10.30
2022-09-01T04:23:37.006Z,10.52
2022-09-01T04:24:45.312Z,10.30
2022-09-01T04:25:50.438Z,10.38
2022-09-01T04:26:55.074Z,10.18
2022-09-01T04:27:58.693Z,9.43
2022-09-01T04:29:01.007Z,9.90
2022-09-01T04:30:03.747Z,9.25
2022-09-01T04:31:14.865Z,10.35
2022-09-01T04:32:21.541Z,9.82
2022-09-01T04:33:38.169Z,10.00
2022-09-01T04:34:41.696Z,10.45
2022-09-01T04:35:46.200Z,10.25
2022-09-01T04:36:50.047Z,11.13
2022-09-01T04:37:56.591Z,8.98
2022-09-01T04:39:01.270Z,10.05
2022-09-01T04:40:04.580Z,10.18
2022-09-01T04:41:07.617Z,9.73
2022-09-01T04:42:11.130Z,9.90
2022-09-01T04:43:13.452Z,8.80
2022-09-01T04:44:18.951Z,9.15
2022-09-01T04:45:27.315Z,10.10
2022-09-01T04:46:32.878Z,11.00
2022-09-01T04:47:37.562Z,10.23
2022-09-01T04:48:45.025Z,10.35
2022-09-01T04:49:48.970Z,10.85
2022-09-01T04:50:52.373Z,10.18
2022-09-01T04:52:01.024Z,10.48
2022-09-01T04:53:06.053Z,11.07
2022-09-01T04:54:14.620Z,11.02
2022-09-01T04:55:20.680Z,9.80
2022-09-01T04:56:25.170Z,10.25
2022-09-01T04:57:49.974Z,11.77
2022-09-01T04:58:55.812Z,11.82
2022-09-01T04:59:58.466Z,12.15
2022-09-01T05:01:06.277Z,12.38
2022-09-01T05:02:10.323Z,11.05
2022-09-01T05:03:12.629Z,13.48
2022-09-01T05:04:33.690Z,11.68
2022-09-01T05:05:43.015Z,12.82
2022-09-01T05:06:50.359Z,12.30
2022-09-01T05:07:55.289Z,12.48
2022-09-01T05:08:58.839Z,13.70
2022-09-01T05:10:22.058Z,12.50
2022-09-01T05:11:45.419Z,12.52
2022-09-01T05:12:57.255Z,12.52
2022-09-01T05:14:00.149Z,12.45
2022-09-01T05:15:06.265Z,12.23
2022-09-01T05:16:14.492Z,12.75
2022-09-01T05:17:18.930Z,12.43
2022-09-01T05:18:25.292Z,11.88
2022-09-01T05:19:29.568Z,11.05
2022-09-01T05:20:36.486Z,11.95
2022-09-01T05:21:38.796Z,12.15
2022-09-01T05:22:42.118Z,11.40
2022-09-01T05:23:46.285Z,11.88
2022-09-01T05:24:51.376Z,10.45
2022-09-01T05:25:57.797Z,11.88
2022-09-01T05:27:00.647Z,10.68
2022-09-01T05:28:03.805Z,11.02
2022-09-01T05:29:13.683Z,11.02
2022-09-01T05:30:18.636Z,11.55
2022-09-01T05:31:23.607Z,11.43
2022-09-01T05:32:26.957Z,11.20
2022-09-01T05:33:29.387Z,11.65
2022-09-01T05:34:36.312Z,10.95
2022-09-01T05:35:43.505Z,10.25
2022-09-01T05:36:46.225Z,10.27
2022-09-01T05:37:51.705Z,11.07
2022-09-01T05:38:54.831Z,11.48
2022-09-01T05:39:58.540Z,11.55
2022-09-01T05:41:08.477Z,11.05
2022-09-01T05:42:10.842Z,12.38
2022-09-01T05:43:14.833Z,11.98
2022-09-01T05:44:18.360Z,12.02
2022-09-01T05:45:26.713Z,12.40
2022-09-01T05:46:30.042Z,12.38
2022-09-01T05:47:36.498Z,11.70
2022-09-01T05:48:39.772Z,11.77
2022-09-01T05:49:44.113Z,11.95
2022-09-01T05:50:46.732Z,13.05
2022-09-01T05:51:51.686Z,13.07
2022-09-01T05:52:57.460Z,12.43
2022-09-01T05:54:00.259Z,12.18
2022-09-01T05:55:09.083Z,11.95
2022-09-01T05:56:15.203Z,12.57
2022-09-01T05:57:33.974Z,11.38
2022-09-01T06:00:01.909Z,12.50
2022-09-01T06:01:05.746Z,11.93
2022-09-01T06:02:09.286Z,12.02
2022-09-01T06:03:11.982Z,11.55
2022-09-01T06:04:18.080Z,12.55
2022-09-01T06:05:21.172Z,12.07
2022-09-01T06:06:36.734Z,11.38
2022-09-01T06:07:47.210Z,11.43
2022-09-01T06:08:51.728Z,11.95
2022-09-01T06:09:54.709Z,12.23
2022-09-01T06:10:58.648Z,12.57
2022-09-01T06:12:01.839Z,12.60
2022-09-01T06:13:05.979Z,12.25
2022-09-01T06:14:11.228Z,13.27
2022-09-01T06:15:16.393Z,12.40
2022-09-01T06:16:24.277Z,12.35
2022-09-01T06:17:30.812Z,12.55
2022-09-01T06:18:38.893Z,12.15
2022-09-01T06:19:42.654Z,10.90
2022-09-01T06:20:47.704Z,11.32
2022-09-01T06:21:51.245Z,12.07
2022-09-01T06:22:53.800Z,11.25
2022-09-01T06:23:58.137Z,11.23
2022-09-01T06:25:02.813Z,11.23
2022-09-01T06:26:18.949Z,11.55
2022-09-01T06:27:22.131Z,11.10
2022-09-01T06:28:25.449Z,11.20
2022-09-01T06:29:28.469Z,11.63
2022-09-01T06:30:34.747Z,11.60
2022-09-01T06:31:42.428Z,11.65
2022-09-01T06:32:46.693Z,12.05
2022-09-01T06:33:51.112Z,12.10
2022-09-01T06:34:53.465Z,12.25
2022-09-01T06:35:55.915Z,12.68
2022-09-01T06:36:59.779Z,12.82
2022-09-01T06:38:02.765Z,12.38
2022-09-01T06:39:19.600Z,12.90
2022-09-01T06:40:25.434Z,12.05
2022-09-01T06:41:29.033Z,12.88
2022-09-01T06:42:35.258Z,14.45
2022-09-01T06:43:40.093Z,12.55
2022-09-01T06:44:43.199Z,13.68
2022-09-01T06:45:54.341Z,13.18
2022-09-01T06:46:59.892Z,12.57
2022-09-01T06:48:02.368Z,13.38
2022-09-01T06:49:05.840Z,12.73
2022-09-01T06:50:08.631Z,12.98
2022-09-01T06:51:18.549Z,12.20
2022-09-01T06:52:25.616Z,12.35
2022-09-01T06:53:32.519Z,12.45
2022-09-01T06:54:39.248Z,13.00
2022-09-01T06:55:41.746Z,12.40
2022-09-01T06:56:44.975Z,12.57
2022-09-01T06:59:23.265Z,11.52
2022-09-01T07:00:26.651Z,12.38
2022-09-01T07:01:30.389Z,12.55
2022-09-01T07:02:33.727Z,11.50
2022-09-01T07:08:31.725Z,10.65
2022-09-01T07:09:47.917Z,11.70
2022-09-01T07:12:25.917Z,12.30
2022-09-01T07:13:30.811Z,11.43
2022-09-01T07:16:32.132Z,10.88
2022-09-01T07:18:28.814Z,10.38
2022-09-01T07:21:38.866Z,10.43
2022-09-01T07:22:35.939Z,10.57
2022-09-01T07:23:47.366Z,10.32
2022-09-01T07:25:16.792Z,10.05
2022-09-01T07:26:52.160Z,8.93
2022-09-01T07:27:54.628Z,9.63
2022-09-01T07:29:01.483Z,9.32
2022-09-01T07:30:04.279Z,9.23
2022-09-01T07:32:47.991Z,10.38
2022-09-01T07:33:55.738Z,9.95
2022-09-01T07:35:22.440Z,9.38
2022-09-01T07:36:26.918Z,9.52
2022-09-01T07:39:57.655Z,12.50
2022-09-01T07:44:13.655Z,8.93
2022-09-01T07:45:47.211Z,10.20
2022-09-01T07:47:19.566Z,9.15
2022-09-01T07:48:36.636Z,8.98
2022-09-01T07:52:31.397Z,10.20
2022-09-01T07:53:35.971Z,9.57
2022-09-01T07:54:40.394Z,9.32
2022-09-01T07:55:44.141Z,10.60
2022-09-01T07:56:47.229Z,10.38
2022-09-01T07:57:49.968Z,10.02
2022-09-01T07:58:53.632Z,9.00
2022-09-01T07:59:58.898Z,9.80
2022-09-01T08:01:18.897Z,10.10
2022-09-01T08:02:24.612Z,8.88
2022-09-01T08:03:27.228Z,8.00
2022-09-01T08:04:30.045Z,8.98
2022-09-01T08:05:33.542Z,8.50
2022-09-01T08:06:38.451Z,8.65
2022-09-01T08:07:57.659Z,8.15
2022-09-01T08:09:11.955Z,8.88
2022-09-01T08:10:28.023Z,7.45
2022-09-01T08:12:57.568Z,8.25
2022-09-01T08:14:02.314Z,7.85
2022-09-01T08:15:41.030Z,8.25
2022-09-01T08:16:39.369Z,7.75
2022-09-01T08:17:52.125Z,6.95
2022-09-01T08:18:57.046Z,7.18
2022-09-01T08:20:03.776Z,7.03
2022-09-01T08:21:30.963Z,7.05
2022-09-01T08:22:38.162Z,7.15
2022-09-01T08:23:55.108Z,6.28
2022-09-01T08:24:58.097Z,6.70
2022-09-01T08:26:06.986Z,7.05
2022-09-01T08:27:09.870Z,7.30
2022-09-01T08:28:14.880Z,7.10
2022-09-01T08:29:20.292Z,6.82
2022-09-01T08:30:23.464Z,6.32
2022-09-01T08:31:30.648Z,7.07
2022-09-01T08:32:35.638Z,7.63
2022-09-01T08:33:39.605Z,7.10
2022-09-01T08:34:43.466Z,7.07
2022-09-01T08:35:49.032Z,7.63
2022-09-01T08:36:52.793Z,9.10
2022-09-01T08:37:56.514Z,9.43
2022-09-01T08:39:00.141Z,7.80
2022-09-01T08:40:07.667Z,7.82
2022-09-01T08:41:19.237Z,7.85
2022-09-01T08:42:58.909Z,7.22
2022-09-01T08:44:25.482Z,7.15
2022-09-01T08:45:43.467Z,6.90
2022-09-01T08:46:46.387Z,8.05
2022-09-01T08:48:29.198Z,7.97
2022-09-01T08:49:25.778Z,8.80
2022-09-01T08:50:51.867Z,10.48
2022-09-01T08:53:09.186Z,9.75
2022-09-01T08:55:43.845Z,9.13
2022-09-01T08:56:47.301Z,9.05
2022-09-01T08:57:57.158Z,9.05
2022-09-01T08:59:02.907Z,9.63
2022-09-01T09:00:18.125Z,8.88
2022-09-01T09:01:42.765Z,9.45
2022-09-01T09:03:07.489Z,9.95
2022-09-01T09:04:28.431Z,9.68
2022-09-01T09:05:58.671Z,7.82
2022-09-01T09:07:27.727Z,9.10
2022-09-01T09:08:51.563Z,8.23
2022-09-01T09:10:02.974Z,8.63
2022-09-01T09:11:38.793Z,8.70
2022-09-01T09:13:08.204Z,8.43
2022-09-01T09:14:40.137Z,7.93
2022-09-01T09:15:47.282Z,7.43
2022-09-01T09:16:53.953Z,8.30
2022-09-01T09:18:05.252Z,7.68
2022-09-01T09:19:37.618Z,7.22
2022-09-01T09:20:40.875Z,7.38
2022-09-01T09:21:47.482Z,6.25
2022-09-01T09:22:50.971Z,6.32
2022-09-01T09:24:22.676Z,6.28
2022-09-01T09:25:25.240Z,6.40
2022-09-01T09:26:27.593Z,6.60
2022-09-01T09:27:36.567Z,6.40
2022-09-01T09:28:40.084Z,6.35
2022-09-01T09:29:45.489Z,6.22
2022-09-01T09:30:48.722Z,6.00
2022-09-01T09:32:22.583Z,5.40
2022-09-01T09:33:51.648Z,5.78
2022-09-01T09:35:34.282Z,6.47
2022-09-01T09:36:37.469Z,5.68
2022-09-01T09:37:39.816Z,4.82
2022-09-01T09:38:42.672Z,5.38
2022-09-01T09:39:45.473Z,4.97
2022-09-01T09:41:25.593Z,5.18
2022-09-01T09:42:33.415Z,5.25
2022-09-01T09:44:02.500Z,5.25
2022-09-01T09:45:05.898Z,5.80
2022-09-01T09:46:25.278Z,5.10
2022-09-01T09:47:44.714Z,6.00
2022-09-01T09:48:48.377Z,5.95
2022-09-01T09:50:12.425Z,6.13
2022-09-01T09:51:21.298Z,5.38
2022-09-01T09:52:23.604Z,5.80
2022-09-01T09:53:32.546Z,5.63
2022-09-01T09:54:37.393Z,5.25
2022-09-01T09:55:57.769Z,5.30
2022-09-01T09:57:09.600Z,5.03
2022-09-01T09:58:12.626Z,4.32
2022-09-01T09:59:57.114Z,5.10
2022-09-01T10:01:25.854Z,4.90
2022-09-01T10:02:43.914Z,4.38
2022-09-01T10:03:49.378Z,4.53
2022-09-01T10:04:55.774Z,4.28
2022-09-01T10:05:58.330Z,4.35
2022-09-01T10:07:00.588Z,4.03
2022-09-01T10:08:04.261Z,4.78
2022-09-01T10:09:27.296Z,4.43
2022-09-01T10:10:32.266Z,4.87
2022-09-01T10:11:41.465Z,4.35
2022-09-01T10:12:44.000Z,4.30
2022-09-01T10:13:46.246Z,4.35
2022-09-01T10:14:53.798Z,4.35
2022-09-01T10:15:59.801Z,4.10
2022-09-01T10:17:09.014Z,4.57
2022-09-01T10:18:21.764Z,5.10
2022-09-01T10:19:35.960Z,4.90
2022-09-01T10:20:39.373Z,4.38
2022-09-01T10:21:47.299Z,4.82
2022-09-01T10:22:50.975Z,5.03
2022-09-01T10:23:53.437Z,4.75
2022-09-01T10:24:56.981Z,4.70
2022-09-01T10:26:09.762Z,4.80
2022-09-01T10:27:34.876Z,4.20
2022-09-01T10:28:49.951Z,4.70
2022-09-01T10:31:29.400Z,3.78
2022-09-01T10:32:52.509Z,4.22
2022-09-01T10:33:59.165Z,4.55
2022-09-01T10:35:04.491Z,4.28
2022-09-01T10:36:08.159Z,4.57
2022-09-01T10:37:15.715Z,4.53
2022-09-01T10:38:29.366Z,4.00
2022-09-01T10:39:33.570Z,4.60
2022-09-01T10:40:49.274Z,4.38
2022-09-01T10:42:00.487Z,4.30
2022-09-01T10:43:25.579Z,4.18
2022-09-01T10:44:35.945Z,4.30
2022-09-01T10:45:43.902Z,4.18
2022-09-01T10:46:50.944Z,4.13
2022-09-01T10:47:54.733Z,4.53
2022-09-01T10:49:02.864Z,4.50
2022-09-01T10:50:35.458Z,4.30
2022-09-01T10:51:51.513Z,4.70
2022-09-01T10:52:57.418Z,4.40
2022-09-01T10:54:02.513Z,4.03
2022-09-01T10:55:26.672Z,4.10
2022-09-01T10:56:51.339Z,4.00
2022-09-01T10:58:11.428Z,4.50
2022-09-01T10:59:35.678Z,4.50
2022-09-01T11:00:40.322Z,4.35
2022-09-01T11:01:49.029Z,4.10
2022-09-01T11:06:12.506Z,4.15
2022-09-01T11:07:56.545Z,3.60
2022-09-01T11:09:00.796Z,3.95
2022-09-01T11:10:34.432Z,4.05
2022-09-01T11:11:47.283Z,4.03
2022-09-01T11:13:21.138Z,3.78
2022-09-01T11:14:26.847Z,3.95
2022-09-01T11:15:42.700Z,3.40
2022-09-01T11:17:23.024Z,3.90
2022-09-01T11:18:29.510Z,3.85
2022-09-01T11:19:44.483Z,3.58
2022-09-01T11:20:47.289Z,3.60
2022-09-01T11:22:09.364Z,3.38
2022-09-01T11:23:30.353Z,3.80
2022-09-01T11:24:38.372Z,4.07
2022-09-01T11:25:41.017Z,3.45
2022-09-01T11:26:48.528Z,3.67
2022-09-01T11:27:50.793Z,3.90
2022-09-01T11:28:53.047Z,3.72
2022-09-01T11:30:09.211Z,3.67
2022-09-01T11:31:19.224Z,3.10
2022-09-01T11:32:27.730Z,3.47
2022-09-01T11:33:56.263Z,3.72
2022-09-01T11:35:02.398Z,3.38
2022-09-01T11:36:13.054Z,3.40
2022-09-01T11:37:17.377Z,3.05
2022-09-01T11:38:20.556Z,3.28
2022-09-01T11:39:56.213Z,2.95
2022-09-01T11:40:58.645Z,2.92
2022-09-01T11:42:28.356Z,3.13
2022-09-01T11:43:31.529Z,3.03
2022-09-01T11:44:54.897Z,2.97
2022-09-01T11:47:14.601Z,3.03
2022-09-01T11:48:17.627Z,2.80
2022-09-01T11:49:32.123Z,3.05
2022-09-01T11:50:38.341Z,3.05
2022-09-01T11:51:46.884Z,3.03
2022-09-01T11:53:05.566Z,2.80
2022-09-01T11:54:08.585Z,2.70
2022-09-01T11:55:11.248Z,2.60
2022-09-01T11:56:17.723Z,2.70
2022-09-01T11:57:29.562Z,2.75
2022-09-01T11:58:39.072Z,2.63
2022-09-01T11:59:43.248Z,2.67
2022-09-01T12:00:45.577Z,2.45
2022-09-01T12:01:47.798Z,2.70
2022-09-01T12:02:52.020Z,2.83
2022-09-01T12:03:54.906Z,2.45
2022-09-01T12:04:57.925Z,2.80
2022-09-01T12:06:04.650Z,2.80
2022-09-01T12:07:11.203Z,2.70
2022-09-01T12:08:18.357Z,2.58
2022-09-01T12:09:44.220Z,2.58
2022-09-01T12:10:47.185Z,2.70
2022-09-01T12:11:51.195Z,2.30
2022-09-01T12:13:07.109Z,2.50
2022-09-01T12:14:12.062Z,2.38
2022-09-01T12:15:39.309Z,2.50
2022-09-01T12:17:01.299Z,2.42
2022-09-01T12:18:35.584Z,2.42
2022-09-01T12:19:39.378Z,2.38
2022-09-01T12:20:41.766Z,2.63
2022-09-01T12:22:16.329Z,2.45
2022-09-01T12:23:40.248Z,2.63
2022-09-01T12:24:48.145Z,2.42
2022-09-01T12:25:50.841Z,2.10
2022-09-01T12:26:57.312Z,2.47
2022-09-01T12:28:01.682Z,2.00
2022-09-01T12:29:05.536Z,2.08
2022-09-01T12:30:08.421Z,1.98
2022-09-01T12:31:17.055Z,2.20
2022-09-01T12:32:20.003Z,2.45
2022-09-01T12:33:24.765Z,2.45
2022-09-01T12:34:33.022Z,2.10
2022-09-01T12:35:35.883Z,2.15
2022-09-01T12:36:38.632Z,2.10
2022-09-01T12:37:41.089Z,2.17
2022-09-01T12:38:43.404Z,2.00
2022-09-01T12:39:51.489Z,2.30
2022-09-01T12:40:56.232Z,2.30
2022-09-01T12:42:09.474Z,2.20
2022-09-01T12:43:26.794Z,2.17
2022-09-01T12:44:53.776Z,2.92
2022-09-01T12:45:59.795Z,2.28
2022-09-01T12:47:08.845Z,2.20
2022-09-01T12:48:25.752Z,2.00
2022-09-01T12:49:37.657Z,2.00
2022-09-01T12:50:48.128Z,1.80
2022-09-01T12:52:05.444Z,2.20
2022-09-01T12:53:17.767Z,2.03
2022-09-01T12:54:25.796Z,2.20
2022-09-01T12:56:51.291Z,2.17
2022-09-01T12:57:57.541Z,2.17
2022-09-01T12:59:15.717Z,1.92
2022-09-01T13:00:21.973Z,2.20
2022-09-01T13:01:28.534Z,2.08
2022-09-01T13:02:36.858Z,1.90
2022-09-01T13:03:39.448Z,2.00
2022-09-01T13:04:42.022Z,1.90
2022-09-01T13:05:47.152Z,2.00
2022-09-01T13:06:50.183Z,2.10
2022-09-01T13:07:57.735Z,2.47
2022-09-01T13:08:59.971Z,2.38
2022-09-01T13:10:02.499Z,2.38
2022-09-01T13:11:11.387Z,2.28
2022-09-01T13:12:21.576Z,1.70
2022-09-01T13:13:25.795Z,1.90
2022-09-01T13:14:28.510Z,1.85
2022-09-01T13:15:31.357Z,2.05
2022-09-01T13:16:34.054Z,2.00
2022-09-01T13:17:38.394Z,2.35
2022-09-01T13:20:07.164Z,2.30
2022-09-01T13:21:09.870Z,1.95
2022-09-01T13:22:12.151Z,2.10
2022-09-01T13:23:14.783Z,1.70
2022-09-01T13:24:17.872Z,1.77
2022-09-01T13:25:22.277Z,2.03
2022-09-01T13:26:24.602Z,1.80
2022-09-01T13:27:27.030Z,1.95
2022-09-01T13:28:29.410Z,1.60
2022-09-01T13:29:31.811Z,2.00
2022-09-01T13:30:35.000Z,2.10
2022-09-01T13:31:37.579Z,2.03
2022-09-01T13:33:18.849Z,1.83
2022-09-01T13:34:22.394Z,2.22
2022-09-01T13:35:26.121Z,2.00
2022-09-01T13:36:46.929Z,2.30
2022-09-01T13:37:51.051Z,2.50
2022-09-01T13:38:55.688Z,2.17
2022-09-01T13:39:58.162Z,2.15
2022-09-01T13:41:02.149Z,2.20
2022-09-01T13:42:04.490Z,2.80
2022-09-01T13:43:06.895Z,2.60
2022-09-01T13:44:10.471Z,2.58
2022-09-01T13:45:15.146Z,2.60
2022-09-01T13:46:18.835Z,2.20
2022-09-01T13:47:29.748Z,2.40
2022-09-01T13:50:08.397Z,2.72
2022-09-01T13:51:15.389Z,2.55
2022-09-01T13:52:19.595Z,2.55
2022-09-01T13:53:22.290Z,2.42
2022-09-01T13:54:24.611Z,2.55
2022-09-01T13:55:30.055Z,2.63
2022-09-01T13:56:32.314Z,2.38
2022-09-01T13:57:36.089Z,2.67
2022-09-01T13:58:38.956Z,2.72
2022-09-01T13:59:41.924Z,2.90
2022-09-01T14:00:46.967Z,2.47
2022-09-01T14:01:49.458Z,2.42
2022-09-01T14:02:54.632Z,2.38
2022-09-01T14:04:00.259Z,2.42
2022-09-01T14:05:02.969Z,2.42
2022-09-01T14:06:06.649Z,2.30
2022-09-01T14:07:08.887Z,2.58
2022-09-01T14:08:12.433Z,2.22
2022-09-01T14:09:17.598Z,2.33
2022-09-01T14:10:21.568Z,2.53
2022-09-01T14:11:26.449Z,2.28
2022-09-01T14:12:29.889Z,2.28
2022-09-01T14:13:32.851Z,2.25
2022-09-01T14:15:58.043Z,2.17
2022-09-01T14:17:00.321Z,2.38
2022-09-01T14:18:03.262Z,2.38
2022-09-01T14:19:05.532Z,2.45
2022-09-01T14:20:12.747Z,2.03
2022-09-01T14:21:16.909Z,2.17
2022-09-01T14:22:19.196Z,2.30
2022-09-01T14:23:21.512Z,2.30
2022-09-01T14:24:24.036Z,2.30
2022-09-01T14:25:26.671Z,2.30
2022-09-01T14:26:29.024Z,2.08
2022-09-01T14:27:31.455Z,2.50
2022-09-01T14:28:33.677Z,2.72
2022-09-01T14:30:41.681Z,2.33
2022-09-01T14:31:44.902Z,2.00
2022-09-01T14:32:47.780Z,2.30
2022-09-01T14:33:50.352Z,2.35
2022-09-01T14:34:54.262Z,2.55
2022-09-01T14:35:56.497Z,2.15
2022-09-01T14:36:58.795Z,2.38
2022-09-01T14:38:02.640Z,2.13
2022-09-01T14:39:05.673Z,2.00
2022-09-01T14:40:10.211Z,2.10
2022-09-01T14:41:23.299Z,2.13
2022-09-01T14:42:28.984Z,2.10
2022-09-01T14:43:32.462Z,2.10
2022-09-01T14:44:38.376Z,2.10
2022-09-01T14:45:48.223Z,2.22
2022-09-01T14:46:50.824Z,2.22
2022-09-01T14:47:58.724Z,2.10
2022-09-01T14:49:02.033Z,2.25
2022-09-01T14:50:05.038Z,2.38
2022-09-01T14:51:09.033Z,2.10
2022-09-01T14:52:12.103Z,1.95
2022-09-01T14:53:14.903Z,2.15
2022-09-01T14:54:17.156Z,1.90
2022-09-01T14:55:19.999Z,1.75
2022-09-01T14:56:23.973Z,2.30
2022-09-01T14:57:31.343Z,1.90
2022-09-01T14:58:42.164Z,2.00
2022-09-01T14:59:44.424Z,2.35
2022-09-01T15:00:47.719Z,2.00
2022-09-01T15:01:50.126Z,2.08
2022-09-01T15:02:54.469Z,1.90
2022-09-01T15:03:57.013Z,1.95
2022-09-01T15:04:59.315Z,1.98
2022-09-01T15:06:01.618Z,2.40
2022-09-01T15:07:05.378Z,1.98
2022-09-01T15:08:13.020Z,2.03
2022-09-01T15:09:19.235Z,1.70
2022-09-01T15:10:25.838Z,2.10
2022-09-01T15:11:28.438Z,1.95
2022-09-01T15:12:31.551Z,2.13
2022-09-01T15:13:33.831Z,1.88
2022-09-01T15:14:36.924Z,2.20
2022-09-01T15:15:39.346Z,2.00
2022-09-01T15:16:41.987Z,1.88
2022-09-01T15:17:46.589Z,2.00
2022-09-01T15:18:49.194Z,1.80
2022-09-01T15:19:51.595Z,1.92
2022-09-01T15:20:54.995Z,2.00
2022-09-01T15:21:57.272Z,1.92
2022-09-01T15:23:00.926Z,2.10
2022-09-01T15:24:03.995Z,2.22
2022-09-01T15:25:06.739Z,2.03
2022-09-01T15:26:08.954Z,1.83
2022-09-01T15:27:11.522Z,2.00
2022-09-01T15:28:14.375Z,1.92
2022-09-01T15:29:16.654Z,1.98
2022-09-01T15:30:19.630Z,1.90
2022-09-01T15:31:32.496Z,1.90
2022-09-01T15:32:35.357Z,2.15